sensor_id;sensor_type;location;lat;lon;timestamp;pressure;altitude;pressure_sealevel;temperature;humidity
13952;BME280;39535;52.192;9.886;2023-05-23T00:01:00;100120.50;;;16.88;100.00
13952;BME280;39535;52.192;9.886;2023-05-23T00:03:27;100135.03;;;16.97;100.00
13952;BME280;39535;52.192;9.886;2023-05-23T00:05:55;100150.53;;;17.03;100.00
13952;BME280;39535;52.192;9.886;2023-05-23T00:08:23;100160.72;;;17.11;100.00
13952;BME280;39535;52.192;9.886;2023-05-23T00:10:49;100175.38;;;17.17;100.00
13952;BME280;39535;52.192;9.886;2023-05-23T00:13:16;100147.94;;;16.67;100.00
13952;BME280;39535;52.192;9.886;2023-05-23T00:15:42;100114.06;;;16.40;100.00
13952;BME280;39535;52.192;9.886;2023-05-23T00:18:10;100077.50;;;16.15;100.00
13952;BME280;39535;52.192;9.886;2023-05-23T00:20:37;100065.72;;;16.05;100.00
13952;BME280;39535;52.192;9.886;2023-05-23T00:23:05;100060.38;;;16.25;100.00
13952;BME280;39535;52.192;9.886;2023-05-23T00:25:32;100056.66;;;16.30;100.00
13952;BME280;39535;52.192;9.886;2023-05-23T00:28:00;100060.22;;;16.46;100.00
13952;BME280;39535;52.192;9.886;2023-05-23T00:30:27;100071.78;;;16.43;100.00
13952;BME280;39535;52.192;9.886;2023-05-23T00:32:53;100084.03;;;16.62;100.00
13952;BME280;39535;52.192;9.886;2023-05-23T00:35:21;100095.69;;;16.75;100.00
13952;BME280;39535;52.192;9.886;2023-05-23T00:37:48;100118.03;;;16.85;100.00
13952;BME280;39535;52.192;9.886;2023-05-23T00:40:16;100117.63;;;16.76;100.00
13952;BME280;39535;52.192;9.886;2023-05-23T00:42:42;100117.66;;;16.57;100.00
13952;BME280;39535;52.192;9.886;2023-05-23T00:45:10;100108.13;;;16.54;100.00
13952;BME280;39535;52.192;9.886;2023-05-23T00:47:37;100105.19;;;16.60;100.00
13952;BME280;39535;52.192;9.886;2023-05-23T00:50:06;100097.78;;;16.32;100.00
13952;BME280;39535;52.192;9.886;2023-05-23T00:52:34;100083.72;;;16.51;100.00
13952;BME280;39535;52.192;9.886;2023-05-23T00:55:01;100089.16;;;16.47;100.00
13952;BME280;39535;52.192;9.886;2023-05-23T00:57:27;100086.00;;;16.22;100.00
13952;BME280;39535;52.192;9.886;2023-05-23T00:59:54;100065.53;;;16.10;100.00
13952;BME280;39535;52.192;9.886;2023-05-23T01:02:21;100057.91;;;15.84;100.00
13952;BME280;39535;52.192;9.886;2023-05-23T01:04:48;100044.88;;;15.81;100.00
13952;BME280;39535;52.192;9.886;2023-05-23T01:07:18;100047.81;;;15.75;100.00
13952;BME280;39535;52.192;9.886;2023-05-23T01:09:46;100057.41;;;15.95;100.00
13952;BME280;39535;52.192;9.886;2023-05-23T01:12:18;100057.84;;;15.86;100.00
13952;BME280;39535;52.192;9.886;2023-05-23T01:14:49;100060.91;;;15.96;100.00
13952;BME280;39535;52.192;9.886;2023-05-23T01:17:21;100064.03;;;16.04;100.00
13952;BME280;39535;52.192;9.886;2023-05-23T01:19:57;100064.81;;;16.06;100.00
13952;BME280;39535;52.192;9.886;2023-05-23T01:22:35;100072.63;;;16.07;100.00
13952;BME280;39535;52.192;9.886;2023-05-23T01:25:10;100076.53;;;15.99;100.00
13952;BME280;39535;52.192;9.886;2023-05-23T01:27:50;100085.94;;;15.85;100.00
13952;BME280;39535;52.192;9.886;2023-05-23T01:30:19;100081.59;;;15.84;100.00
13952;BME280;39535;52.192;9.886;2023-05-23T01:32:47;100095.31;;;15.91;100.00
13952;BME280;39535;52.192;9.886;2023-05-23T01:35:17;100109.84;;;15.81;100.00
13952;BME280;39535;52.192;9.886;2023-05-23T01:37:46;100109.72;;;15.84;100.00
13952;BME280;39535;52.192;9.886;2023-05-23T01:40:13;100125.91;;;15.75;100.00
13952;BME280;39535;52.192;9.886;2023-05-23T01:42:39;100116.53;;;15.67;100.00
13952;BME280;39535;52.192;9.886;2023-05-23T01:45:09;100127.00;;;15.50;100.00
13952;BME280;39535;52.192;9.886;2023-05-23T01:47:37;100126.28;;;15.26;100.00
13952;BME280;39535;52.192;9.886;2023-05-23T01:50:06;100112.81;;;15.13;100.00
13952;BME280;39535;52.192;9.886;2023-05-23T01:52:33;100109.41;;;15.11;100.00
13952;BME280;39535;52.192;9.886;2023-05-23T01:55:00;100115.25;;;14.97;100.00
13952;BME280;39535;52.192;9.886;2023-05-23T01:57:28;100125.19;;;14.91;100.00
13952;BME280;39535;52.192;9.886;2023-05-23T01:59:56;100128.25;;;15.00;100.00
13952;BME280;39535;52.192;9.886;2023-05-23T02:02:23;100133.53;;;14.78;100.00
13952;BME280;39535;52.192;9.886;2023-05-23T02:04:50;100135.47;;;14.75;100.00
13952;BME280;39535;52.192;9.886;2023-05-23T02:07:18;100134.78;;;14.69;100.00
13952;BME280;39535;52.192;9.886;2023-05-23T02:09:47;100144.06;;;14.56;100.00
13952;BME280;39535;52.192;9.886;2023-05-23T02:12:13;100148.69;;;14.49;100.00
13952;BME280;39535;52.192;9.886;2023-05-23T02:14:40;100160.84;;;14.52;100.00
13952;BME280;39535;52.192;9.886;2023-05-23T02:17:07;100166.41;;;14.66;100.00
13952;BME280;39535;52.192;9.886;2023-05-23T02:19:35;100184.66;;;14.71;100.00
13952;BME280;39535;52.192;9.886;2023-05-23T02:22:02;100201.56;;;14.64;100.00
13952;BME280;39535;52.192;9.886;2023-05-23T02:24:28;100209.25;;;14.68;100.00
13952;BME280;39535;52.192;9.886;2023-05-23T02:26:55;100206.81;;;14.64;100.00
13952;BME280;39535;52.192;9.886;2023-05-23T02:29:21;100204.66;;;14.52;100.00
13952;BME280;39535;52.192;9.886;2023-05-23T02:31:47;100191.25;;;14.36;100.00
13952;BME280;39535;52.192;9.886;2023-05-23T02:34:14;100197.34;;;14.36;100.00
13952;BME280;39535;52.192;9.886;2023-05-23T02:36:42;100212.09;;;14.17;100.00
13952;BME280;39535;52.192;9.886;2023-05-23T02:39:08;100217.69;;;14.07;100.00
13952;BME280;39535;52.192;9.886;2023-05-23T02:41:34;100214.47;;;13.99;100.00
13952;BME280;39535;52.192;9.886;2023-05-23T02:44:01;100213.53;;;14.02;100.00
13952;BME280;39535;52.192;9.886;2023-05-23T02:46:27;100212.03;;;14.18;100.00
13952;BME280;39535;52.192;9.886;2023-05-23T02:48:54;100213.47;;;14.03;100.00
13952;BME280;39535;52.192;9.886;2023-05-23T02:51:20;100218.38;;;14.13;100.00
13952;BME280;39535;52.192;9.886;2023-05-23T02:53:48;100223.97;;;14.03;100.00
13952;BME280;39535;52.192;9.886;2023-05-23T02:56:15;100226.25;;;14.13;100.00
13952;BME280;39535;52.192;9.886;2023-05-23T02:58:41;100226.25;;;14.13;100.00
13952;BME280;39535;52.192;9.886;2023-05-23T03:01:07;100222.03;;;14.08;100.00
13952;BME280;39535;52.192;9.886;2023-05-23T03:03:34;100229.94;;;14.07;100.00
13952;BME280;39535;52.192;9.886;2023-05-23T03:06:01;100233.13;;;14.15;100.00
13952;BME280;39535;52.192;9.886;2023-05-23T03:08:29;100238.34;;;14.17;100.00
13952;BME280;39535;52.192;9.886;2023-05-23T03:10:56;100232.00;;;13.99;100.00
13952;BME280;39535;52.192;9.886;2023-05-23T03:13:23;100228.03;;;13.87;100.00
13952;BME280;39535;52.192;9.886;2023-05-23T03:15:49;100219.66;;;13.77;100.00
13952;BME280;39535;52.192;9.886;2023-05-23T03:18:16;100203.34;;;13.69;100.00
13952;BME280;39535;52.192;9.886;2023-05-23T03:20:42;100199.31;;;13.59;100.00
13952;BME280;39535;52.192;9.886;2023-05-23T03:23:08;100180.97;;;13.59;100.00
13952;BME280;39535;52.192;9.886;2023-05-23T03:25:35;100179.91;;;13.64;100.00
13952;BME280;39535;52.192;9.886;2023-05-23T03:28:02;100177.94;;;13.69;100.00
13952;BME280;39535;52.192;9.886;2023-05-23T03:30:29;100193.09;;;13.61;100.00
13952;BME280;39535;52.192;9.886;2023-05-23T03:32:56;100191.38;;;13.62;100.00
13952;BME280;39535;52.192;9.886;2023-05-23T03:35:22;100198.31;;;13.63;100.00
13952;BME280;39535;52.192;9.886;2023-05-23T03:37:48;100205.09;;;13.68;100.00
13952;BME280;39535;52.192;9.886;2023-05-23T03:40:15;100189.38;;;13.68;100.00
13952;BME280;39535;52.192;9.886;2023-05-23T03:42:41;100201.38;;;13.76;100.00
13952;BME280;39535;52.192;9.886;2023-05-23T03:45:09;100208.66;;;13.91;100.00
13952;BME280;39535;52.192;9.886;2023-05-23T03:47:36;100212.16;;;13.92;100.00
13952;BME280;39535;52.192;9.886;2023-05-23T03:50:03;100214.19;;;13.83;100.00
13952;BME280;39535;52.192;9.886;2023-05-23T03:52:29;100216.75;;;13.85;100.00
13952;BME280;39535;52.192;9.886;2023-05-23T03:54:56;100211.41;;;13.88;100.00
13952;BME280;39535;52.192;9.886;2023-05-23T03:57:22;100204.47;;;13.85;100.00
13952;BME280;39535;52.192;9.886;2023-05-23T03:59:48;100208.78;;;13.88;100.00
13952;BME280;39535;52.192;9.886;2023-05-23T04:02:16;100199.53;;;13.78;100.00
13952;BME280;39535;52.192;9.886;2023-05-23T04:04:43;100190.78;;;13.77;100.00
13952;BME280;39535;52.192;9.886;2023-05-23T04:07:09;100183.50;;;13.85;100.00
13952;BME280;39535;52.192;9.886;2023-05-23T04:09:35;100175.06;;;13.77;100.00
13952;BME280;39535;52.192;9.886;2023-05-23T04:12:02;100175.06;;;13.77;100.00
13952;BME280;39535;52.192;9.886;2023-05-23T04:14:28;100175.94;;;13.78;100.00
13952;BME280;39535;52.192;9.886;2023-05-23T04:16:57;100173.13;;;13.82;100.00
13952;BME280;39535;52.192;9.886;2023-05-23T04:19:26;100174.94;;;13.80;100.00
13952;BME280;39535;52.192;9.886;2023-05-23T04:21:52;100170.97;;;13.70;100.00
13952;BME280;39535;52.192;9.886;2023-05-23T04:24:19;100180.75;;;13.65;100.00
13952;BME280;39535;52.192;9.886;2023-05-23T04:26:45;100165.84;;;13.65;100.00
13952;BME280;39535;52.192;9.886;2023-05-23T04:29:11;100163.72;;;13.51;100.00
13952;BME280;39535;52.192;9.886;2023-05-23T04:31:38;100161.22;;;13.48;100.00
13952;BME280;39535;52.192;9.886;2023-05-23T04:34:05;100150.53;;;13.55;100.00
13952;BME280;39535;52.192;9.886;2023-05-23T04:36:33;100154.66;;;13.62;100.00
13952;BME280;39535;52.192;9.886;2023-05-23T04:39:02;100163.38;;;13.62;100.00
13952;BME280;39535;52.192;9.886;2023-05-23T04:41:29;100167.94;;;13.81;100.00
13952;BME280;39535;52.192;9.886;2023-05-23T04:43:55;100164.78;;;13.95;100.00
13952;BME280;39535;52.192;9.886;2023-05-23T04:46:22;100170.38;;;14.09;100.00
13952;BME280;39535;52.192;9.886;2023-05-23T04:48:51;100184.88;;;14.19;100.00
13952;BME280;39535;52.192;9.886;2023-05-23T04:51:17;100202.16;;;14.25;100.00
13952;BME280;39535;52.192;9.886;2023-05-23T04:53:48;100212.03;;;14.18;100.00
13952;BME280;39535;52.192;9.886;2023-05-23T04:56:14;100225.25;;;14.15;100.00
13952;BME280;39535;52.192;9.886;2023-05-23T04:58:42;100217.75;;;14.06;100.00
13952;BME280;39535;52.192;9.886;2023-05-23T05:01:09;100219.88;;;14.20;100.00
13952;BME280;39535;52.192;9.886;2023-05-23T05:03:36;100240.34;;;14.34;100.00
13952;BME280;39535;52.192;9.886;2023-05-23T05:06:03;100243.06;;;14.07;100.00
13952;BME280;39535;52.192;9.886;2023-05-23T05:08:30;100243.88;;;14.09;100.00
13952;BME280;39535;52.192;9.886;2023-05-23T05:10:57;100229.72;;;13.89;100.00
13952;BME280;39535;52.192;9.886;2023-05-23T05:13:24;100237.25;;;13.99;100.00
13952;BME280;39535;52.192;9.886;2023-05-23T05:15:50;100234.84;;;13.93;100.00
13952;BME280;39535;52.192;9.886;2023-05-23T05:18:17;100218.47;;;13.86;100.00
13952;BME280;39535;52.192;9.886;2023-05-23T05:20:44;100220.75;;;13.95;100.00
13952;BME280;39535;52.192;9.886;2023-05-23T05:23:11;100226.50;;;13.81;100.00
13952;BME280;39535;52.192;9.886;2023-05-23T05:25:37;100222.94;;;13.84;100.00
13952;BME280;39535;52.192;9.886;2023-05-23T05:28:06;100229.31;;;14.00;100.00
13952;BME280;39535;52.192;9.886;2023-05-23T05:30:33;100243.25;;;14.02;100.00
13952;BME280;39535;52.192;9.886;2023-05-23T05:33:00;100246.84;;;14.00;100.00
13952;BME280;39535;52.192;9.886;2023-05-23T05:35:28;100240.81;;;13.73;100.00
13952;BME280;39535;52.192;9.886;2023-05-23T05:37:54;100226.50;;;13.81;100.00
13952;BME280;39535;52.192;9.886;2023-05-23T05:40:21;100222.94;;;13.84;100.00
13952;BME280;39535;52.192;9.886;2023-05-23T05:42:47;100213.25;;;13.61;100.00
13952;BME280;39535;52.192;9.886;2023-05-23T05:45:15;100199.00;;;13.68;100.00
13952;BME280;39535;52.192;9.886;2023-05-23T05:47:41;100193.19;;;13.60;100.00
13952;BME280;39535;52.192;9.886;2023-05-23T05:50:08;100195.69;;;13.63;100.00
13952;BME280;39535;52.192;9.886;2023-05-23T05:52:35;100195.22;;;13.75;100.00
13952;BME280;39535;52.192;9.886;2023-05-23T05:55:04;100193.59;;;13.73;100.00
13952;BME280;39535;52.192;9.886;2023-05-23T05:57:31;100190.88;;;13.50;100.00
13952;BME280;39535;52.192;9.886;2023-05-23T05:59:57;100177.84;;;13.47;100.00
13952;BME280;39535;52.192;9.886;2023-05-23T06:02:25;100181.50;;;13.68;100.00
13952;BME280;39535;52.192;9.886;2023-05-23T06:04:51;100186.41;;;13.78;100.00
13952;BME280;39535;52.192;9.886;2023-05-23T06:07:17;100197.44;;;13.87;100.00
13952;BME280;39535;52.192;9.886;2023-05-23T06:09:43;100192.03;;;13.67;100.00
13952;BME280;39535;52.192;9.886;2023-05-23T06:12:10;100193.38;;;13.79;100.00
13952;BME280;39535;52.192;9.886;2023-05-23T06:14:36;100202.59;;;13.89;100.00
13952;BME280;39535;52.192;9.886;2023-05-23T06:17:03;100191.91;;;13.72;100.00
13952;BME280;39535;52.192;9.886;2023-05-23T06:19:30;100178.34;;;13.59;100.00
13952;BME280;39535;52.192;9.886;2023-05-23T06:21:57;100178.16;;;13.63;100.00
13952;BME280;39535;52.192;9.886;2023-05-23T06:24:23;100170.38;;;13.62;100.00
13952;BME280;39535;52.192;9.886;2023-05-23T06:26:49;100180.88;;;13.62;100.00
13952;BME280;39535;52.192;9.886;2023-05-23T06:29:16;100175.41;;;13.68;100.00
13952;BME280;39535;52.192;9.886;2023-05-23T06:31:42;100186.69;;;13.70;100.00
13952;BME280;39535;52.192;9.886;2023-05-23T06:34:09;100185.72;;;13.73;100.00
13952;BME280;39535;52.192;9.886;2023-05-23T06:36:36;100193.38;;;13.79;100.00
13952;BME280;39535;52.192;9.886;2023-05-23T06:39:03;100199.63;;;13.75;100.00
13952;BME280;39535;52.192;9.886;2023-05-23T06:41:29;100197.56;;;13.59;100.00
13952;BME280;39535;52.192;9.886;2023-05-23T06:43:55;100194.53;;;13.72;100.00
13952;BME280;39535;52.192;9.886;2023-05-23T06:46:21;100195.31;;;13.74;100.00
13952;BME280;39535;52.192;9.886;2023-05-23T06:48:48;100201.94;;;13.59;100.00
13952;BME280;39535;52.192;9.886;2023-05-23T06:51:14;100193.97;;;13.62;100.00
13952;BME280;39535;52.192;9.886;2023-05-23T06:53:42;100201.19;;;13.55;100.00
13952;BME280;39535;52.192;9.886;2023-05-23T06:56:08;100205.69;;;13.51;100.00
13952;BME280;39535;52.192;9.886;2023-05-23T06:58:34;100204.63;;;13.57;100.00
13952;BME280;39535;52.192;9.886;2023-05-23T07:01:00;100219.09;;;13.44;100.00
13952;BME280;39535;52.192;9.886;2023-05-23T07:03:27;100220.63;;;13.49;100.00
13952;BME280;39535;52.192;9.886;2023-05-23T07:05:53;100220.75;;;13.46;100.00
13952;BME280;39535;52.192;9.886;2023-05-23T07:08:20;100228.69;;;13.43;100.00
13952;BME280;39535;52.192;9.886;2023-05-23T07:10:47;100229.56;;;13.44;100.00
13952;BME280;39535;52.192;9.886;2023-05-23T07:13:14;100237.38;;;13.45;100.00
13952;BME280;39535;52.192;9.886;2023-05-23T07:15:40;100234.94;;;13.39;100.00
13952;BME280;39535;52.192;9.886;2023-05-23T07:18:06;100241.34;;;13.32;100.00
13952;BME280;39535;52.192;9.886;2023-05-23T07:20:33;100246.22;;;13.15;100.00
13952;BME280;39535;52.192;9.886;2023-05-23T07:22:59;100254.31;;;13.08;100.00
13952;BME280;39535;52.192;9.886;2023-05-23T07:25:25;100245.72;;;13.03;100.00
13952;BME280;39535;52.192;9.886;2023-05-23T07:27:53;100251.69;;;13.08;100.00
13952;BME280;39535;52.192;9.886;2023-05-23T07:30:20;100249.38;;;12.98;100.00
13952;BME280;39535;52.192;9.886;2023-05-23T07:32:47;100262.16;;;13.08;100.00
13952;BME280;39535;52.192;9.886;2023-05-23T07:35:14;100266.72;;;13.02;100.00
13952;BME280;39535;52.192;9.886;2023-05-23T07:37:41;100266.41;;;13.13;100.00
13952;BME280;39535;52.192;9.886;2023-05-23T07:40:07;100260.63;;;13.01;100.00
13952;BME280;39535;52.192;9.886;2023-05-23T07:42:34;100269.06;;;13.11;100.00
13952;BME280;39535;52.192;9.886;2023-05-23T07:45:02;100276.31;;;13.03;100.00
13952;BME280;39535;52.192;9.886;2023-05-23T07:47:28;100277.41;;;12.96;100.00
13952;BME280;39535;52.192;9.886;2023-05-23T07:49:55;100277.28;;;13.00;100.00
13952;BME280;39535;52.192;9.886;2023-05-23T07:52:21;100277.31;;;12.99;100.00
13952;BME280;39535;52.192;9.886;2023-05-23T07:54:47;100278.88;;;13.04;100.00
13952;BME280;39535;52.192;9.886;2023-05-23T07:57:14;100283.13;;;13.08;100.00
13952;BME280;39535;52.192;9.886;2023-05-23T07:59:40;100281.63;;;13.00;100.00
13952;BME280;39535;52.192;9.886;2023-05-23T08:02:08;100291.09;;;13.04;100.00
13952;BME280;39535;52.192;9.886;2023-05-23T08:04:34;100295.75;;;12.96;100.00
13952;BME280;39535;52.192;9.886;2023-05-23T08:07:01;100285.56;;;12.86;100.00
13952;BME280;39535;52.192;9.886;2023-05-23T08:09:29;100289.03;;;12.87;100.00
13952;BME280;39535;52.192;9.886;2023-05-23T08:11:55;100299.78;;;12.78;100.00
13952;BME280;39535;52.192;9.886;2023-05-23T08:14:21;100300.56;;;12.81;100.00
13952;BME280;39535;52.192;9.886;2023-05-23T08:16:48;100305.56;;;12.89;100.00
13952;BME280;39535;52.192;9.886;2023-05-23T08:19:16;100305.72;;;12.84;100.00
13952;BME280;39535;52.192;9.886;2023-05-23T08:21:42;100315.31;;;12.84;100.00
13952;BME280;39535;52.192;9.886;2023-05-23T08:24:08;100317.16;;;12.80;100.00
13952;BME280;39535;52.192;9.886;2023-05-23T08:26:37;100313.59;;;12.83;100.00
13952;BME280;39535;52.192;9.886;2023-05-23T08:29:03;100320.34;;;12.90;100.00
13952;BME280;39535;52.192;9.886;2023-05-23T08:31:30;100325.72;;;12.87;100.00
13952;BME280;39535;52.192;9.886;2023-05-23T08:33:58;100331.94;;;12.83;100.00
13952;BME280;39535;52.192;9.886;2023-05-23T08:36:25;100327.75;;;12.77;100.00
13952;BME280;39535;52.192;9.886;2023-05-23T08:38:52;100343.47;;;12.77;100.00
13952;BME280;39535;52.192;9.886;2023-05-23T08:41:19;100342.50;;;12.80;100.00
13952;BME280;39535;52.192;9.886;2023-05-23T08:43:46;100340.25;;;12.67;100.00
13952;BME280;39535;52.192;9.886;2023-05-23T08:46:13;100345.66;;;12.61;100.00
13952;BME280;39535;52.192;9.886;2023-05-23T08:48:41;100358.53;;;12.69;100.00
13952;BME280;39535;52.192;9.886;2023-05-23T08:51:09;100361.66;;;12.50;100.00
13952;BME280;39535;52.192;9.886;2023-05-23T08:53:40;100372.13;;;12.50;100.00
13952;BME280;39535;52.192;9.886;2023-05-23T08:56:07;100368.94;;;12.41;100.00
13952;BME280;39535;52.192;9.886;2023-05-23T08:58:35;100371.47;;;12.44;100.00
13952;BME280;39535;52.192;9.886;2023-05-23T09:01:03;100376.72;;;12.42;100.00
13952;BME280;39535;52.192;9.886;2023-05-23T09:03:29;100390.47;;;12.19;100.00
13952;BME280;39535;52.192;9.886;2023-05-23T09:05:57;100381.56;;;12.25;100.00
13952;BME280;39535;52.192;9.886;2023-05-23T09:08:24;100386.03;;;12.21;100.00
13952;BME280;39535;52.192;9.886;2023-05-23T09:10:51;100392.16;;;12.20;100.00
13952;BME280;39535;52.192;9.886;2023-05-23T09:13:18;100393.06;;;12.19;100.00
13952;BME280;39535;52.192;9.886;2023-05-23T09:16:01;100414.19;;;12.13;100.00
13952;BME280;39535;52.192;9.886;2023-05-23T09:18:32;100414.03;;;12.18;100.00
13952;BME280;39535;52.192;9.886;2023-05-23T09:20:59;100406.22;;;12.16;100.00
13952;BME280;39535;52.192;9.886;2023-05-23T09:23:28;100418.44;;;12.17;100.00
13952;BME280;39535;52.192;9.886;2023-05-23T09:26:00;100416.53;;;12.22;100.00
13952;BME280;39535;52.192;9.886;2023-05-23T09:28:27;100431.16;;;12.31;100.00
13952;BME280;39535;52.192;9.886;2023-05-23T09:30:57;100426.84;;;12.28;100.00
13952;BME280;39535;52.192;9.886;2023-05-23T09:33:28;100444.69;;;12.12;100.00
13952;BME280;39535;52.192;9.886;2023-05-23T09:35:54;100450.06;;;12.08;100.00
13952;BME280;39535;52.192;9.886;2023-05-23T09:38:20;100443.50;;;11.91;100.00
13952;BME280;39535;52.192;9.886;2023-05-23T09:40:47;100452.31;;;11.86;100.00
13952;BME280;39535;52.192;9.886;2023-05-23T09:43:16;100461.97;;;11.82;100.00
13952;BME280;39535;52.192;9.886;2023-05-23T09:45:42;100471.66;;;11.77;100.00
13952;BME280;39535;52.192;9.886;2023-05-23T09:48:11;100464.78;;;11.73;100.00
13952;BME280;39535;52.192;9.886;2023-05-23T09:50:38;100468.47;;;11.66;100.00
13952;BME280;39535;52.192;9.886;2023-05-23T09:53:04;100456.53;;;11.54;100.00
13952;BME280;39535;52.192;9.886;2023-05-23T09:55:30;100468.81;;;11.50;100.00
13952;BME280;39535;52.192;9.886;2023-05-23T09:57:58;100475.63;;;11.58;100.00
13952;BME280;39535;52.192;9.886;2023-05-23T10:00:26;100471.41;;;11.50;100.00
13952;BME280;39535;52.192;9.886;2023-05-23T10:02:54;100477.47;;;11.52;100.00
13952;BME280;39535;52.192;9.886;2023-05-23T10:05:32;100493.03;;;11.57;100.00
13952;BME280;39535;52.192;9.886;2023-05-23T10:08:00;100506.38;;;11.45;100.00
13952;BME280;39535;52.192;9.886;2023-05-23T10:10:30;100490.88;;;11.37;100.00
13952;BME280;39535;52.192;9.886;2023-05-23T10:12:59;100496.03;;;11.42;100.00
13952;BME280;39535;52.192;9.886;2023-05-23T10:15:30;100501.25;;;11.42;100.00
13952;BME280;39535;52.192;9.886;2023-05-23T10:18:04;100495.09;;;11.44;100.00
13952;BME280;39535;52.192;9.886;2023-05-23T10:20:32;100509.94;;;11.42;100.00
13952;BME280;39535;52.192;9.886;2023-05-23T10:23:01;100519.56;;;11.40;100.00
13952;BME280;39535;52.192;9.886;2023-05-23T10:25:29;100523.75;;;11.47;100.00
13952;BME280;39535;52.192;9.886;2023-05-23T10:27:57;100530.72;;;11.48;100.00
13952;BME280;39535;52.192;9.886;2023-05-23T10:30:24;100512.28;;;11.55;100.00
13952;BME280;39535;52.192;9.886;2023-05-23T10:32:53;100533.25;;;11.51;100.00
13952;BME280;39535;52.192;9.886;2023-05-23T10:35:24;100524.53;;;11.52;100.00
13952;BME280;39535;52.192;9.886;2023-05-23T10:37:56;100527.16;;;11.52;100.00
13952;BME280;39535;52.192;9.886;2023-05-23T10:40:30;100523.59;;;11.55;100.00
13952;BME280;39535;52.192;9.886;2023-05-23T10:43:03;100534.22;;;11.47;100.00
13952;BME280;39535;52.192;9.886;2023-05-23T10:45:38;100527.41;;;11.40;100.00
13952;BME280;39535;52.192;9.886;2023-05-23T10:48:19;100530.03;;;11.40;100.00
13952;BME280;39535;52.192;9.886;2023-05-23T10:51:00;100526.63;;;11.35;100.00
13952;BME280;39535;52.192;9.886;2023-05-23T10:53:29;100532.63;;;11.40;100.00
13952;BME280;39535;52.192;9.886;2023-05-23T10:55:56;100552.63;;;11.43;100.00
13952;BME280;39535;52.192;9.886;2023-05-23T10:58:22;100554.38;;;11.42;100.00
13952;BME280;39535;52.192;9.886;2023-05-23T11:00:53;100557.00;;;11.42;100.00
13952;BME280;39535;52.192;9.886;2023-05-23T11:03:31;100567.31;;;11.48;100.00
13952;BME280;39535;52.192;9.886;2023-05-23T11:05:59;100582.19;;;11.45;100.00
13952;BME280;39535;52.192;9.886;2023-05-23T11:08:26;100584.00;;;11.41;100.00
13952;BME280;39535;52.192;9.886;2023-05-23T11:10:55;100580.34;;;11.50;100.00
13952;BME280;39535;52.192;9.886;2023-05-23T11:13:23;100591.66;;;11.52;100.00
13952;BME280;39535;52.192;9.886;2023-05-23T11:15:50;100599.69;;;11.41;100.00
13952;BME280;39535;52.192;9.886;2023-05-23T11:18:21;100600.47;;;11.46;100.00
13952;BME280;39535;52.192;9.886;2023-05-23T11:20:51;100623.31;;;11.37;100.00
13952;BME280;39535;52.192;9.886;2023-05-23T11:23:17;100628.78;;;11.23;100.00
13952;BME280;39535;52.192;9.886;2023-05-23T11:25:47;100628.69;;;11.27;100.00
13952;BME280;39535;52.192;9.886;2023-05-23T11:28:14;100625.31;;;11.24;100.00
13952;BME280;39535;52.192;9.886;2023-05-23T11:30:41;100621.00;;;11.20;100.00
13952;BME280;39535;52.192;9.886;2023-05-23T11:33:09;100616.72;;;11.16;100.00
13952;BME280;39535;52.192;9.886;2023-05-23T11:35:38;100616.78;;;11.12;100.00
13952;BME280;39535;52.192;9.886;2023-05-23T11:38:07;100616.84;;;11.09;100.00
13952;BME280;39535;52.192;9.886;2023-05-23T11:40:35;100612.25;;;11.24;100.00
13952;BME280;39535;52.192;9.886;2023-05-23T11:43:03;100610.53;;;11.20;100.00
13952;BME280;39535;52.192;9.886;2023-05-23T11:45:30;100612.06;;;11.31;100.00
13952;BME280;39535;52.192;9.886;2023-05-23T11:47:57;100619.88;;;11.33;100.00
13952;BME280;39535;52.192;9.886;2023-05-23T11:50:23;100646.97;;;11.29;100.00
13952;BME280;39535;52.192;9.886;2023-05-23T11:52:50;100653.97;;;11.28;100.00
13952;BME280;39535;52.192;9.886;2023-05-23T11:55:18;100658.38;;;11.25;100.00
13952;BME280;39535;52.192;9.886;2023-05-23T11:57:45;100656.69;;;11.22;100.00
13952;BME280;39535;52.192;9.886;2023-05-23T12:00:12;100653.34;;;11.14;100.00
13952;BME280;39535;52.192;9.886;2023-05-23T12:02:39;100630.41;;;11.30;100.00
13952;BME280;39535;52.192;9.886;2023-05-23T12:05:07;100624.16;;;11.37;100.00
13952;BME280;39535;52.192;9.886;2023-05-23T12:07:34;100633.66;;;11.41;100.00
13952;BME280;39535;52.192;9.886;2023-05-23T12:10:02;100659.16;;;11.30;100.00
13952;BME280;39535;52.192;9.886;2023-05-23T12:12:30;100661.00;;;11.23;100.00
13952;BME280;39535;52.192;9.886;2023-05-23T12:14:57;100687.16;;;11.22;100.00
13952;BME280;39535;52.192;9.886;2023-05-23T12:17:23;100722.25;;;11.08;100.00
13952;BME280;39535;52.192;9.886;2023-05-23T12:19:51;100733.53;;;11.09;100.00
13952;BME280;39535;52.192;9.886;2023-05-23T12:22:21;100738.75;;;11.09;100.00
13952;BME280;39535;52.192;9.886;2023-05-23T12:24:48;100743.06;;;11.11;100.00
13952;BME280;39535;52.192;9.886;2023-05-23T12:27:18;100774.19;;;11.25;100.00
13952;BME280;39535;52.192;9.886;2023-05-23T12:29:50;100796.66;;;11.37;100.00
13952;BME280;39535;52.192;9.886;2023-05-23T12:32:16;100817.09;;;11.65;100.00
13952;BME280;39535;52.192;9.886;2023-05-23T12:34:43;100850.50;;;12.02;100.00
13952;BME280;39535;52.192;9.886;2023-05-23T12:37:12;100863.63;;;12.47;100.00
13952;BME280;39535;52.192;9.886;2023-05-23T12:39:38;100923.56;;;12.61;99.23
13952;BME280;39535;52.192;9.886;2023-05-23T12:42:08;100950.66;;;12.58;97.74